Time;durP1;ratioP1;P1;durP2;ratioP2;P2;SDS_P1;SDS_P2;PMS_P1;PMS_P2;Temp;Humidity;BMP_temperature;BMP_pressure;BME280_temperature;BME280_humidity;BME280_pressure;Samples;Min_cycle;Max_cycle;Signal;HPM_P1;HPM_P2
2022/01/03 00:01:39;;;;;;;9.40;2.53;;;14.00;99.90;;;;;;5046672;28;20423;-72
2022/01/03 00:04:08;;;;;;;4.93;1.93;;;14.00;99.90;;;;;;5029549;28;20440;-72
2022/01/03 00:06:35;;;;;;;5.60;2.00;;;14.00;99.90;;;;;;5026184;28;20428;-72
2022/01/03 00:09:01;;;;;;;6.87;2.10;;;14.00;99.90;;;;;;5027884;28;20533;-72
2022/01/03 00:11:27;;;;;;;4.00;1.83;;;14.00;99.90;;;;;;5028118;28;20470;-72
2022/01/03 00:13:52;;;;;;;4.33;2.10;;;14.00;99.90;;;;;;5047400;28;20523;-71
2022/01/03 00:16:19;;;;;;;4.60;2.27;;;14.00;99.90;;;;;;5045226;28;20213;-72
2022/01/03 00:18:44;;;;;;;6.50;2.60;;;14.00;99.90;;;;;;5026123;28;20181;-71
2022/01/03 00:21:16;;;;;;;8.90;5.20;;;14.00;99.90;;;;;;5026130;28;20404;-71
2022/01/03 00:23:51;;;;;;;5.63;2.13;;;14.00;99.90;;;;;;5027637;28;20197;-72
2022/01/03 00:26:26;;;;;;;3.93;2.53;;;14.00;99.90;;;;;;5030843;28;20518;-72
2022/01/03 00:28:59;;;;;;;8.07;2.60;;;14.00;99.90;;;;;;5025844;28;20459;-72
2022/01/03 00:31:33;;;;;;;5.83;2.37;;;14.00;99.90;;;;;;5030073;28;20817;-72
2022/01/03 00:33:59;;;;;;;8.33;2.57;;;14.00;99.90;;;;;;5045903;28;20453;-71
2022/01/03 00:36:28;;;;;;;6.20;2.50;;;14.00;99.90;;;;;;5045669;28;20459;-71
2022/01/03 00:38:54;;;;;;;4.73;2.00;;;13.90;99.90;;;;;;5049467;28;20454;-71
2022/01/03 00:41:22;;;;;;;9.07;2.70;;;13.90;99.90;;;;;;5048740;28;20466;-71
2022/01/03 00:43:50;;;;;;;7.13;2.70;;;13.90;99.90;;;;;;5051865;28;20453;-71
2022/01/03 00:46:17;;;;;;;5.63;2.30;;;13.90;99.90;;;;;;5061313;28;20419;-71
2022/01/03 00:48:43;;;;;;;9.10;2.80;;;13.80;99.90;;;;;;5051424;28;20431;-72
2022/01/03 00:51:09;;;;;;;6.90;2.37;;;13.90;99.90;;;;;;5035612;28;20420;-71
2022/01/03 00:53:34;;;;;;;6.40;1.93;;;13.80;99.90;;;;;;5051100;28;20511;-71
2022/01/03 00:56:02;;;;;;;3.43;1.77;;;13.80;99.90;;;;;;5050351;28;20208;-71
2022/01/03 00:58:37;;;;;;;9.00;1.97;;;15.70;99.90;;;;;;5050891;28;20239;-71
2022/01/03 01:01:07;;;;;;;6.03;2.43;;;13.90;99.90;;;;;;5048676;28;20446;-72
2022/01/03 01:03:38;;;;;;;6.60;2.10;;;13.90;99.90;;;;;;5049238;28;20449;-71
2022/01/03 01:06:08;;;;;;;7.47;2.53;;;13.90;99.90;;;;;;5043582;28;20495;-71
2022/01/03 01:08:37;;;;;;;11.23;4.00;;;13.90;99.90;;;;;;5030722;28;20822;-71
2022/01/03 01:11:06;;;;;;;8.60;2.20;;;13.90;99.90;;;;;;5040471;28;20438;-71
2022/01/03 01:13:32;;;;;;;7.23;2.40;;;13.90;99.90;;;;;;5042824;28;20612;-71
2022/01/03 01:15:58;;;;;;;4.87;2.20;;;13.90;99.90;;;;;;5050444;28;20612;-71
2022/01/03 01:18:24;;;;;;;7.03;3.03;;;13.90;99.90;;;;;;5050310;28;20491;-71
2022/01/03 01:20:50;;;;;;;7.27;2.80;;;13.90;99.90;;;;;;5038757;28;20588;-71
2022/01/03 01:23:16;;;;;;;9.70;3.00;;;13.80;99.90;;;;;;5029782;28;20559;-71
2022/01/03 01:28:10;;;;;;;8.67;2.50;;;13.90;99.90;;;;;;5046397;28;20170;-70
2022/01/03 01:30:36;;;;;;;8.83;2.87;;;13.80;99.90;;;;;;5029966;28;20174;-70
2022/01/03 01:33:05;;;;;;;9.50;2.97;;;13.80;99.90;;;;;;5031569;28;20444;-70
2022/01/03 01:35:55;;;;;;;8.60;2.53;;;13.80;99.90;;;;;;5029617;28;20471;-71
2022/01/03 01:38:24;;;;;;;3.03;1.20;;;13.80;99.90;;;;;;5039147;28;20422;-71
2022/01/03 01:40:53;;;;;;;1.50;1.10;;;13.60;99.90;;;;;;5046065;28;20443;-71
2022/01/03 01:43:36;;;;;;;6.77;1.10;;;13.00;99.90;;;;;;5038715;28;20435;-71
2022/01/03 01:46:12;;;;;;;6.90;1.03;;;12.90;99.90;;;;;;5029753;28;20914;-70
2022/01/03 01:48:40;;;;;;;4.07;1.03;;;12.40;99.90;;;;;;5057925;28;20411;-71
2022/01/03 01:51:09;;;;;;;1.97;1.33;;;12.20;99.90;;;;;;5059338;28;20870;-71
2022/01/03 01:53:43;;;;;;;5.93;1.23;;;12.10;99.90;;;;;;5038705;28;20455;-70
2022/01/03 01:56:23;;;;;;;2.60;1.00;;;11.80;99.90;;;;;;5044255;28;20937;-70
2022/01/03 01:59:31;;;;;;;2.33;1.10;;;12.00;99.90;;;;;;5028987;28;20427;-71
2022/01/03 02:02:05;;;;;;;2.87;1.40;;;11.60;99.90;;;;;;5036079;28;20463;-70
2022/01/03 02:04:45;;;;;;;2.60;1.00;;;11.60;99.90;;;;;;5030019;28;20519;-71
2022/01/03 02:07:48;;;;;;;1.80;1.13;;;11.50;99.90;;;;;;5035426;28;20416;-71
2022/01/03 02:10:15;;;;;;;2.10;1.20;;;11.40;99.90;;;;;;5037255;28;20860;-70
2022/01/03 02:12:46;;;;;;;4.30;1.20;;;11.20;99.90;;;;;;5050431;28;20411;-70
2022/01/03 02:15:14;;;;;;;1.50;0.90;;;11.10;99.90;;;;;;5048095;28;20460;-70
2022/01/03 02:17:44;;;;;;;2.67;1.13;;;11.10;99.90;;;;;;5043038;28;20423;-70
2022/01/03 02:20:14;;;;;;;3.03;1.40;;;11.10;99.90;;;;;;5047202;28;20928;-71
2022/01/03 02:22:41;;;;;;;4.13;1.10;;;11.20;99.90;;;;;;5044579;28;20917;-70
2022/01/03 02:25:09;;;;;;;2.70;1.10;;;11.20;99.90;;;;;;5048290;28;20420;-70
2022/01/03 02:27:36;;;;;;;5.27;1.30;;;11.30;99.90;;;;;;5035925;28;20446;-70
2022/01/03 02:30:05;;;;;;;7.97;1.30;;;11.20;99.90;;;;;;5033223;28;20416;-70
2022/01/03 02:32:31;;;;;;;9.53;1.67;;;11.10;99.90;;;;;;5046116;28;20466;-70
2022/01/03 02:34:57;;;;;;;9.50;1.80;;;11.20;99.90;;;;;;5028323;28;20504;-70
2022/01/03 02:37:23;;;;;;;4.17;1.53;;;11.20;99.90;;;;;;5041323;28;20185;-71
2022/01/03 02:39:50;;;;;;;2.93;1.20;;;11.20;99.90;;;;;;5048364;28;20220;-71
2022/01/03 02:42:18;;;;;;;6.90;1.47;;;11.10;99.90;;;;;;5041861;28;20405;-71
2022/01/03 02:44:43;;;;;;;4.53;1.23;;;11.00;99.90;;;;;;5055231;28;20432;-71
2022/01/03 02:47:09;;;;;;;1.87;0.90;;;10.80;99.90;;;;;;5036193;28;20424;-71
2022/01/03 02:49:34;;;;;;;5.07;0.97;;;10.70;99.90;;;;;;5045388;28;20170;-72
2022/01/03 02:52:00;;;;;;;5.73;1.10;;;10.70;99.90;;;;;;5047727;28;20157;-71
2022/01/03 02:54:25;;;;;;;3.50;1.17;;;10.60;99.90;;;;;;5047592;28;20237;-72
2022/01/03 02:56:51;;;;;;;2.07;1.00;;;10.70;99.90;;;;;;5034191;28;20277;-71
2022/01/03 02:59:19;;;;;;;3.63;1.10;;;10.70;99.90;;;;;;5038361;28;20174;-71
2022/01/03 03:01:46;;;;;;;3.43;1.63;;;10.80;99.90;;;;;;5028625;28;20249;-71
2022/01/03 03:04:12;;;;;;;5.60;1.30;;;10.90;99.90;;;;;;5045204;28;20474;-71
2022/01/03 03:06:38;;;;;;;6.40;1.80;;;10.70;99.90;;;;;;5028503;28;20451;-70
2022/01/03 03:09:07;;;;;;;1.40;1.00;;;10.10;99.90;;;;;;5043661;28;20435;-71
2022/01/03 03:11:38;;;;;;;5.63;1.17;;;9.30;99.90;;;;;;5033787;28;20177;-70
2022/01/03 03:14:04;;;;;;;2.90;1.37;;;8.90;99.90;;;;;;5042186;28;20527;-70
2022/01/03 03:16:29;;;;;;;2.43;1.20;;;8.70;99.90;;;;;;5045358;28;20539;-70
2022/01/03 03:18:55;;;;;;;3.10;1.33;;;8.70;99.90;;;;;;5048384;28;20237;-70
2022/01/03 03:21:20;;;;;;;4.43;1.20;;;8.70;99.90;;;;;;5043033;28;20193;-70
2022/01/03 03:23:46;;;;;;;3.00;1.00;;;8.60;99.90;;;;;;5043979;28;20190;-70
2022/01/03 03:26:13;;;;;;;5.30;1.23;;;8.70;99.90;;;;;;5030492;28;20181;-70
2022/01/03 03:28:38;;;;;;;3.90;1.47;;;8.70;99.90;;;;;;5048354;28;20323;-70
2022/01/03 03:31:05;;;;;;;8.10;1.30;;;8.80;99.90;;;;;;5046443;28;20581;-70
2022/01/03 03:33:32;;;;;;;3.43;1.23;;;8.80;99.90;;;;;;5028657;28;20209;-70
2022/01/03 03:35:59;;;;;;;3.37;1.20;;;8.90;99.90;;;;;;5027305;28;20460;-69
2022/01/03 03:38:25;;;;;;;1.87;1.37;;;8.90;99.90;;;;;;5047648;28;20510;-70
2022/01/03 03:40:55;;;;;;;1.83;1.40;;;8.90;99.90;;;;;;5033348;28;20420;-70
2022/01/03 03:43:21;;;;;;;5.57;1.70;;;8.90;99.90;;;;;;5045215;28;20446;-69
2022/01/03 03:45:51;;;;;;;6.07;1.50;;;9.00;99.90;;;;;;5036634;28;20428;-70
2022/01/03 03:48:17;;;;;;;2.47;1.27;;;9.10;99.90;;;;;;5027953;28;20405;-71
2022/01/03 03:50:44;;;;;;;3.20;1.40;;;9.20;99.90;;;;;;5037989;28;20540;-71
2022/01/03 03:53:10;;;;;;;6.83;1.67;;;9.30;99.90;;;;;;5039781;28;20444;-71
2022/01/03 03:55:35;;;;;;;3.73;1.43;;;9.40;99.90;;;;;;5035826;28;20933;-71
2022/01/03 03:58:02;;;;;;;3.73;1.50;;;9.70;99.90;;;;;;5045588;28;20197;-71
2022/01/03 04:00:28;;;;;;;4.10;1.70;;;9.40;99.90;;;;;;5034761;28;20176;-71
2022/01/03 04:02:54;;;;;;;4.53;1.47;;;9.40;99.90;;;;;;5041580;28;20575;-71
2022/01/03 04:05:19;;;;;;;3.60;1.40;;;9.40;99.90;;;;;;5027465;28;20512;-71
2022/01/03 04:07:45;;;;;;;4.50;1.60;;;9.40;99.90;;;;;;5030894;28;20757;-71
2022/01/03 04:10:13;;;;;;;10.90;2.17;;;9.40;99.90;;;;;;5036566;28;20174;-71
2022/01/03 04:12:39;;;;;;;3.20;1.50;;;9.30;99.90;;;;;;5038690;28;20180;-71
2022/01/03 04:15:05;;;;;;;2.63;1.40;;;9.30;99.90;;;;;;5048423;28;20463;-71
2022/01/03 04:17:31;;;;;;;7.10;1.90;;;9.30;99.90;;;;;;5046126;28;20594;-71
2022/01/03 04:19:56;;;;;;;5.40;1.80;;;9.20;99.90;;;;;;5046330;28;20607;-71
2022/01/03 04:22:22;;;;;;;13.53;2.37;;;9.30;99.90;;;;;;5045282;28;20185;-71
2022/01/03 04:24:47;;;;;;;9.77;2.40;;;9.50;99.90;;;;;;5028714;28;20345;-71
2022/01/03 04:27:13;;;;;;;4.70;1.70;;;9.80;99.90;;;;;;5029693;28;20178;-71
2022/01/03 04:29:39;;;;;;;6.70;2.00;;;10.00;99.90;;;;;;5046643;28;20184;-71
2022/01/03 04:32:04;;;;;;;6.07;2.20;;;10.10;99.90;;;;;;5044729;28;20252;-71
2022/01/03 04:34:30;;;;;;;9.23;2.30;;;10.30;99.90;;;;;;5027947;28;20218;-70
2022/01/03 04:36:56;;;;;;;9.90;2.07;;;10.40;99.90;;;;;;5038846;28;20197;-70
2022/01/03 04:39:22;;;;;;;7.87;2.10;;;10.50;99.90;;;;;;5046439;28;20295;-71
2022/01/03 04:41:47;;;;;;;8.90;2.20;;;10.50;99.90;;;;;;5043512;28;20442;-71
2022/01/03 04:44:13;;;;;;;6.23;2.00;;;10.60;99.90;;;;;;5052193;28;20207;-71
2022/01/03 04:46:39;;;;;;;12.50;2.03;;;10.60;99.90;;;;;;5044688;28;20166;-71
2022/01/03 04:49:07;;;;;;;10.73;3.33;;;10.50;99.90;;;;;;5032851;28;20553;-70
2022/01/03 04:51:33;;;;;;;13.17;1.97;;;10.60;99.90;;;;;;5024372;28;20174;-71
2022/01/03 04:53:59;;;;;;;4.77;2.20;;;10.50;99.90;;;;;;5042016;28;20447;-71
2022/01/03 04:56:28;;;;;;;6.80;1.97;;;10.50;99.90;;;;;;5029953;28;20451;-71
2022/01/03 04:58:55;;;;;;;11.00;2.70;;;10.50;99.90;;;;;;5043331;28;20181;-71
2022/01/03 05:01:21;;;;;;;5.33;1.70;;;10.50;99.90;;;;;;5045516;28;20771;-71
2022/01/03 05:03:47;;;;;;;5.50;2.00;;;10.60;99.90;;;;;;5030089;28;21017;-70
2022/01/03 05:06:13;;;;;;;7.70;2.33;;;10.60;99.90;;;;;;5031320;28;20425;-70
2022/01/03 05:08:39;;;;;;;8.40;2.47;;;10.60;99.90;;;;;;5025729;28;20609;-71
2022/01/03 05:11:04;;;;;;;11.80;2.37;;;10.60;99.90;;;;;;5026471;28;20648;-70
2022/01/03 05:13:31;;;;;;;9.20;2.20;;;10.60;99.90;;;;;;5039814;28;20451;-70
2022/01/03 05:15:58;;;;;;;7.20;2.10;;;10.70;99.90;;;;;;5043289;28;20193;-71
2022/01/03 05:18:23;;;;;;;8.67;2.27;;;10.80;99.90;;;;;;5046585;28;20415;-70
2022/01/03 05:20:49;;;;;;;9.50;2.30;;;10.80;99.90;;;;;;5044177;28;20965;-70
2022/01/03 05:23:15;;;;;;;7.27;2.30;;;10.90;99.90;;;;;;5048011;28;20224;-70
2022/01/03 05:25:40;;;;;;;7.67;2.30;;;11.00;99.90;;;;;;5038879;28;20246;-70
2022/01/03 05:28:06;;;;;;;12.47;2.90;;;11.00;99.90;;;;;;5050410;28;20213;-69
2022/01/03 05:30:31;;;;;;;6.43;2.10;;;11.00;99.90;;;;;;5044649;28;20280;-69
2022/01/03 05:32:57;;;;;;;7.77;2.20;;;11.10;99.90;;;;;;5047606;28;20200;-70
2022/01/03 05:35:23;;;;;;;9.60;2.37;;;11.10;99.90;;;;;;5045885;28;20279;-70
2022/01/03 05:37:48;;;;;;;6.53;2.10;;;11.10;99.90;;;;;;5029303;28;20166;-70
2022/01/03 05:40:14;;;;;;;10.53;2.43;;;11.20;99.90;;;;;;5029661;28;20169;-70
2022/01/03 05:42:41;;;;;;;5.57;2.23;;;11.20;99.90;;;;;;5036753;28;20176;-71
2022/01/03 05:45:08;;;;;;;7.17;2.33;;;11.20;99.90;;;;;;5058425;28;20161;-70
2022/01/03 05:47:33;;;;;;;9.13;1.97;;;11.20;99.90;;;;;;5049765;28;20408;-70
2022/01/03 05:49:59;;;;;;;10.47;2.70;;;11.20;99.90;;;;;;5048985;28;20415;-70
2022/01/03 05:52:25;;;;;;;5.40;1.90;;;11.20;99.90;;;;;;5041225;28;20200;-70
2022/01/03 05:54:52;;;;;;;5.60;2.10;;;11.20;99.90;;;;;;5041536;28;20193;-70
2022/01/03 05:57:18;;;;;;;12.43;2.30;;;11.20;99.90;;;;;;5047765;28;20414;-70
2022/01/03 05:59:43;;;;;;;8.40;2.60;;;11.30;99.90;;;;;;5049283;28;20427;-70
2022/01/03 06:02:09;;;;;;;7.43;2.17;;;11.30;99.90;;;;;;5039824;28;20375;-70
2022/01/03 06:04:53;;;;;;;7.03;2.20;;;11.20;99.90;;;;;;5029571;28;20213;-70
2022/01/03 06:07:20;;;;;;;5.23;2.10;;;11.20;99.90;;;;;;5027376;28;20178;-70
2022/01/03 06:09:46;;;;;;;6.90;2.97;;;11.20;99.90;;;;;;5028298;28;20405;-71
2022/01/03 06:12:13;;;;;;;7.43;2.40;;;11.20;99.90;;;;;;5029568;28;20427;-70
2022/01/03 06:14:39;;;;;;;11.03;2.47;;;11.30;99.90;;;;;;5059486;28;20447;-71
2022/01/03 06:17:05;;;;;;;7.17;2.10;;;11.30;99.90;;;;;;5051348;28;20486;-70
2022/01/03 06:19:33;;;;;;;7.63;2.03;;;11.30;99.90;;;;;;5048381;28;20275;-70
2022/01/03 06:22:01;;;;;;;9.33;2.30;;;11.30;99.90;;;;;;5032206;28;20429;-70
2022/01/03 06:24:26;;;;;;;8.70;2.33;;;11.20;99.90;;;;;;5029623;28;20801;-70
2022/01/03 06:26:52;;;;;;;8.33;2.07;;;11.20;99.90;;;;;;5046806;28;20416;-70
2022/01/03 06:29:21;;;;;;;4.50;2.20;;;11.20;99.90;;;;;;5049697;28;20173;-71
2022/01/03 06:31:47;;;;;;;8.27;2.27;;;11.20;99.90;;;;;;5041891;28;20673;-71
2022/01/03 06:34:14;;;;;;;4.83;1.80;;;11.30;99.90;;;;;;5031408;28;20448;-71
2022/01/03 06:36:40;;;;;;;7.77;2.47;;;11.30;99.90;;;;;;5038015;28;20462;-70
2022/01/03 06:39:07;;;;;;;6.70;1.90;;;11.30;99.90;;;;;;5046712;28;20438;-71
2022/01/03 06:41:33;;;;;;;9.50;2.20;;;11.30;99.90;;;;;;5047395;28;20176;-71
2022/01/03 06:43:58;;;;;;;8.03;2.10;;;11.40;99.90;;;;;;5047059;28;20808;-71
2022/01/03 06:46:24;;;;;;;6.33;1.87;;;11.40;99.90;;;;;;5050017;28;20169;-71
2022/01/03 06:48:49;;;;;;;6.60;2.00;;;11.40;99.90;;;;;;5046626;28;20180;-71
2022/01/03 06:51:16;;;;;;;8.27;2.00;;;11.40;99.90;;;;;;5046242;28;20181;-70
2022/01/03 06:53:42;;;;;;;14.50;2.87;;;11.40;99.90;;;;;;5038788;28;20204;-71
2022/01/03 15:47:07;;;;;;;5.90;2.40;;;11.90;99.90;;;;;;5013890;28;20561;-72
2022/01/03 15:49:34;;;;;;;8.93;3.00;;;12.00;99.90;;;;;;5005347;28;20421;-70
2022/01/03 15:52:00;;;;;;;9.53;2.67;;;12.10;99.90;;;;;;5004026;28;20456;-70
2022/01/03 15:54:25;;;;;;;5.17;2.50;;;12.20;99.90;;;;;;5003090;28;20450;-71
2022/01/03 15:56:53;;;;;;;6.27;2.00;;;12.30;99.90;;;;;;5044156;28;20891;-71
2022/01/03 15:59:18;;;;;;;8.70;2.40;;;12.40;99.90;;;;;;4996987;28;20468;-71
2022/01/03 16:01:44;;;;;;;3.73;2.00;;;12.50;99.90;;;;;;4982348;28;20773;-71
2022/01/03 16:04:11;;;;;;;8.27;3.13;;;12.60;99.90;;;;;;4984555;28;20195;-70
2022/01/03 16:06:38;;;;;;;8.30;2.30;;;12.60;99.90;;;;;;4981366;28;20223;-70
2022/01/03 16:09:03;;;;;;;6.87;3.00;;;12.70;99.90;;;;;;4982861;28;20438;-71
2022/01/03 16:11:29;;;;;;;7.73;2.03;;;12.70;99.90;;;;;;4981935;28;20449;-71
2022/01/03 16:13:55;;;;;;;4.83;2.20;;;12.70;99.90;;;;;;5011793;28;20226;-70
2022/01/03 16:16:21;;;;;;;3.43;1.90;;;12.80;99.90;;;;;;4996749;28;20441;-71
2022/01/03 16:18:46;;;;;;;7.70;2.50;;;12.80;99.90;;;;;;5013177;28;20361;-71
2022/01/03 16:21:12;;;;;;;5.80;2.37;;;12.80;99.90;;;;;;5002793;28;20179;-71
2022/01/03 16:23:38;;;;;;;8.57;2.00;;;12.80;99.90;;;;;;4993213;28;20195;-71
2022/01/03 16:26:04;;;;;;;4.37;2.27;;;12.80;99.90;;;;;;4987270;28;20287;-71
2022/01/03 16:28:30;;;;;;;5.47;1.77;;;12.80;99.90;;;;;;5002307;28;20278;-72
2022/01/03 16:30:56;;;;;;;4.93;2.00;;;12.80;99.90;;;;;;5005152;28;20187;-70
2022/01/03 16:33:22;;;;;;;10.03;2.37;;;12.80;99.90;;;;;;5008285;28;20453;-71
2022/01/03 16:35:48;;;;;;;5.97;2.47;;;12.80;99.90;;;;;;5030635;28;20442;-71
2022/01/03 16:38:13;;;;;;;9.03;2.80;;;12.80;99.90;;;;;;5052768;28;20915;-71
2022/01/03 16:40:39;;;;;;;6.17;3.23;;;12.80;99.90;;;;;;4984689;28;20262;-71
2022/01/03 16:43:06;;;;;;;9.53;3.43;;;12.80;99.90;;;;;;4994864;28;20267;-71
2022/01/03 16:45:32;;;;;;;6.20;2.43;;;12.70;99.90;;;;;;4989652;28;20493;-71
2022/01/03 16:47:58;;;;;;;11.40;4.17;;;12.80;99.90;;;;;;5000418;28;20490;-71
2022/01/03 16:50:24;;;;;;;3.80;2.40;;;12.80;99.90;;;;;;4986618;28;20795;-71
2022/01/03 16:52:50;;;;;;;4.60;2.60;;;12.80;99.90;;;;;;4982201;28;20251;-74
2022/01/03 16:55:16;;;;;;;4.70;2.10;;;12.80;99.90;;;;;;4995758;28;20569;-73
2022/01/03 16:57:41;;;;;;;7.97;1.90;;;12.80;99.90;;;;;;4983183;28;20429;-71
2022/01/03 17:00:08;;;;;;;4.93;2.43;;;12.90;99.90;;;;;;4982190;28;20438;-70
2022/01/03 17:02:35;;;;;;;9.50;2.13;;;12.80;99.90;;;;;;5058551;28;20183;-68
2022/01/03 17:05:01;;;;;;;6.30;2.30;;;12.80;99.90;;;;;;4971731;28;20463;-70
2022/01/03 17:07:28;;;;;;;7.20;1.87;;;12.80;99.90;;;;;;4974769;28;20439;-71
2022/01/03 17:09:55;;;;;;;4.23;1.63;;;12.80;99.90;;;;;;4977697;28;20975;-70
2022/01/03 17:12:21;;;;;;;7.03;2.23;;;12.80;99.90;;;;;;4985535;28;20426;-70
2022/01/03 17:14:46;;;;;;;6.50;2.30;;;12.80;99.90;;;;;;4976862;28;20454;-70
2022/01/03 17:17:12;;;;;;;4.83;1.97;;;12.80;99.90;;;;;;4983346;28;20183;-70
2022/01/03 17:19:37;;;;;;;6.13;2.43;;;12.80;99.90;;;;;;4972871;28;20210;-70
2022/01/03 17:22:03;;;;;;;8.13;2.30;;;12.80;99.90;;;;;;4992986;28;20257;-70
2022/01/03 17:24:29;;;;;;;6.97;2.53;;;12.80;99.90;;;;;;4983675;28;20204;-70
2022/01/03 17:26:55;;;;;;;3.57;1.80;;;12.80;99.90;;;;;;5020193;28;20481;-70
2022/01/03 17:29:20;;;;;;;6.30;2.20;;;12.70;99.90;;;;;;4991056;28;20183;-70
2022/01/03 17:31:46;;;;;;;10.93;2.87;;;12.70;99.90;;;;;;5035755;28;20582;-70
2022/01/03 17:34:12;;;;;;;7.20;2.63;;;12.70;99.90;;;;;;4974220;28;20196;-70
2022/01/03 17:36:38;;;;;;;7.60;2.10;;;12.70;99.90;;;;;;4971179;28;20653;-69
2022/01/03 17:39:05;;;;;;;6.00;2.80;;;12.70;99.90;;;;;;4971151;28;20184;-70
2022/01/03 17:41:32;;;;;;;7.23;2.90;;;12.70;99.90;;;;;;4977901;28;20427;-70
2022/01/03 17:43:57;;;;;;;5.50;2.50;;;14.50;99.90;;;;;;5001507;28;20939;-70
2022/01/03 17:46:23;;;;;;;7.00;3.53;;;12.70;99.90;;;;;;5037302;28;20468;-71
2022/01/03 17:48:49;;;;;;;5.27;1.90;;;12.70;99.90;;;;;;4970925;28;20307;-70
2022/01/03 17:51:16;;;;;;;6.13;2.30;;;12.70;99.90;;;;;;4981039;28;20168;-70
2022/01/03 17:53:43;;;;;;;5.03;2.10;;;12.70;99.90;;;;;;4978634;28;20192;-70
2022/01/03 17:56:09;;;;;;;8.50;2.37;;;13.00;99.90;;;;;;5019103;28;20530;-70
2022/01/03 17:58:36;;;;;;;10.33;3.73;;;12.70;99.90;;;;;;4982373;28;20715;-70
2022/01/03 18:01:06;;;;;;;6.37;2.33;;;12.70;99.90;;;;;;5019609;28;20955;-70
2022/01/03 18:03:32;;;;;;;5.23;1.93;;;12.70;99.90;;;;;;4988991;28;20823;-70
2022/01/03 18:05:59;;;;;;;5.10;2.30;;;12.70;99.90;;;;;;5006821;28;20618;-70
2022/01/03 18:08:25;;;;;;;7.63;2.47;;;12.60;99.90;;;;;;5003630;28;20851;-71
2022/01/03 18:10:51;;;;;;;5.30;2.00;;;12.70;99.90;;;;;;4967329;28;20517;-70
2022/01/03 18:13:17;;;;;;;6.60;1.70;;;12.70;99.90;;;;;;4967947;28;20526;-70
2022/01/03 18:15:43;;;;;;;3.93;2.07;;;12.70;99.90;;;;;;4967561;28;20260;-70
2022/01/03 18:18:08;;;;;;;4.40;2.03;;;12.70;99.90;;;;;;4976161;28;20525;-70
2022/01/03 18:20:34;;;;;;;7.33;2.13;;;12.70;99.90;;;;;;4976714;28;20184;-70
2022/01/03 18:23:00;;;;;;;7.87;2.20;;;12.60;99.90;;;;;;4966544;28;20200;-70
2022/01/03 18:25:28;;;;;;;5.37;2.50;;;12.60;99.90;;;;;;5029826;28;20691;-70
2022/01/03 18:27:54;;;;;;;5.50;2.07;;;12.60;99.90;;;;;;4996810;28;20175;-70
2022/01/03 18:30:20;;;;;;;8.67;2.33;;;12.60;99.90;;;;;;4987248;28;20521;-70
2022/01/03 18:32:46;;;;;;;5.10;1.93;;;12.60;99.90;;;;;;4995854;28;20169;-70
2022/01/03 18:35:11;;;;;;;4.17;1.90;;;12.70;99.90;;;;;;5057464;28;20525;-70
2022/01/03 18:37:38;;;;;;;4.60;2.20;;;12.60;99.90;;;;;;5040146;28;20184;-70
2022/01/03 18:40:05;;;;;;;4.70;2.23;;;12.60;99.90;;;;;;5027285;28;20527;-70
2022/01/03 18:42:31;;;;;;;5.30;2.40;;;12.60;99.90;;;;;;4984412;28;20844;-69
2022/01/03 18:44:57;;;;;;;6.30;2.30;;;12.60;99.90;;;;;;5016238;28;20641;-70
2022/01/03 18:47:24;;;;;;;4.30;2.00;;;12.60;99.90;;;;;;5000566;28;20205;-70
2022/01/03 18:49:50;;;;;;;6.50;2.03;;;12.60;99.90;;;;;;4985945;28;20254;-69
2022/01/03 18:52:15;;;;;;;6.70;2.93;;;12.60;99.90;;;;;;4978784;28;20467;-70
2022/01/03 18:54:41;;;;;;;8.93;3.13;;;12.60;99.90;;;;;;4980029;28;20439;-70
2022/01/03 18:57:07;;;;;;;9.07;3.90;;;12.60;99.90;;;;;;4968384;28;20286;-70
2022/01/03 18:59:32;;;;;;;3.97;1.90;;;12.60;99.90;;;;;;4982086;28;20675;-71
2022/01/03 19:01:58;;;;;;;4.70;2.43;;;12.50;99.90;;;;;;4995614;28;20186;-70
2022/01/03 19:04:24;;;;;;;4.57;2.10;;;12.60;99.90;;;;;;5032094;28;20210;-70
2022/01/03 19:06:49;;;;;;;3.93;1.83;;;12.50;99.90;;;;;;4969024;28;20318;-70
2022/01/03 19:09:15;;;;;;;5.30;2.13;;;12.50;99.90;;;;;;4977013;28;20177;-70
2022/01/03 19:11:40;;;;;;;4.67;2.00;;;12.50;99.90;;;;;;4966648;28;20527;-71
2022/01/03 19:14:06;;;;;;;4.47;2.23;;;12.50;99.90;;;;;;4968986;28;20578;-70
2022/01/03 19:16:32;;;;;;;4.03;2.10;;;12.50;99.90;;;;;;5006143;28;20196;-70
2022/01/03 19:18:58;;;;;;;7.80;2.40;;;12.40;99.90;;;;;;5019997;28;20527;-71
2022/01/03 19:21:23;;;;;;;3.83;2.50;;;12.40;99.90;;;;;;4965728;28;20187;-70
2022/01/03 19:23:49;;;;;;;7.00;2.93;;;12.40;99.90;;;;;;4992860;28;20225;-70
2022/01/03 19:26:18;;;;;;;6.20;3.07;;;12.40;99.90;;;;;;5035855;28;20256;-71
2022/01/03 19:28:44;;;;;;;4.03;2.80;;;12.40;99.90;;;;;;4977375;28;20171;-70
2022/01/03 19:31:10;;;;;;;6.70;2.77;;;12.30;99.90;;;;;;4982696;28;20451;-70
2022/01/03 19:38:47;;;;;;;5.33;1.90;;;13.00;99.90;;;;;;4979469;28;20233;-70
2022/01/03 19:41:15;;;;;;;4.03;2.00;;;12.40;99.90;;;;;;4975968;28;20550;-71
2022/01/03 19:43:40;;;;;;;3.60;2.10;;;12.40;99.90;;;;;;4987420;28;20507;-70
2022/01/03 19:46:06;;;;;;;5.87;2.40;;;12.40;99.90;;;;;;5001161;28;20470;-70
2022/01/03 19:48:33;;;;;;;2.47;1.83;;;12.40;99.90;;;;;;4971379;28;20196;-70
2022/01/03 19:50:58;;;;;;;6.90;2.60;;;12.40;99.90;;;;;;4966021;28;20279;-70
2022/01/03 19:53:24;;;;;;;5.20;2.40;;;14.30;99.90;;;;;;4966165;28;20494;-69
2022/01/03 19:55:50;;;;;;;7.40;2.40;;;12.40;99.90;;;;;;5000060;28;20235;-70
2022/01/03 19:58:16;;;;;;;6.57;2.40;;;12.40;99.90;;;;;;5064109;28;20436;-71
2022/01/03 20:00:42;;;;;;;4.90;3.03;;;12.40;99.90;;;;;;5023251;28;20190;-70
2022/01/03 20:03:08;;;;;;;10.40;2.73;;;12.40;99.90;;;;;;5013088;28;20716;-70
2022/01/03 20:05:34;;;;;;;3.60;2.30;;;12.40;99.90;;;;;;5018008;28;20534;-71
2022/01/03 20:08:02;;;;;;;5.00;2.53;;;12.40;99.90;;;;;;4977457;28;20187;-71
2022/01/03 20:10:29;;;;;;;5.47;2.27;;;12.40;99.90;;;;;;4966240;28;20173;-70
2022/01/03 20:12:55;;;;;;;5.27;2.40;;;12.70;99.90;;;;;;4976408;28;20431;-70
2022/01/03 20:15:21;;;;;;;4.30;2.50;;;12.30;99.90;;;;;;4965437;28;20462;-70
2022/01/03 20:17:47;;;;;;;5.80;2.43;;;12.30;99.90;;;;;;4982701;28;20411;-70
2022/01/03 20:20:13;;;;;;;7.77;2.73;;;12.30;99.90;;;;;;4984920;28;20440;-70
2022/01/03 20:22:40;;;;;;;6.47;2.53;;;12.20;99.90;;;;;;4994597;28;20191;-70
2022/01/03 20:25:07;;;;;;;5.27;2.40;;;12.20;99.90;;;;;;5001591;28;20923;-71
2022/01/03 20:27:33;;;;;;;4.73;2.23;;;12.10;99.90;;;;;;4971994;28;20426;-70
2022/01/03 20:29:58;;;;;;;4.80;2.10;;;12.00;99.90;;;;;;5025668;28;20433;-71
2022/01/03 20:32:24;;;;;;;4.27;2.30;;;12.00;99.90;;;;;;5054020;28;20221;-70
2022/01/03 20:34:50;;;;;;;4.20;2.03;;;12.00;99.90;;;;;;4974502;28;20208;-71
2022/01/03 20:37:17;;;;;;;4.20;2.20;;;12.00;99.90;;;;;;5027347;28;20417;-70
2022/01/03 20:39:44;;;;;;;4.00;2.50;;;11.90;99.90;;;;;;4999815;28;20248;-70
2022/01/03 20:42:10;;;;;;;5.80;2.40;;;11.80;99.90;;;;;;4976341;28;20626;-70
2022/01/03 20:44:36;;;;;;;5.83;2.30;;;11.80;99.90;;;;;;4969605;28;20451;-70
2022/01/03 20:47:03;;;;;;;3.10;1.93;;;11.80;99.90;;;;;;4968116;28;20470;-70
2022/01/03 20:49:29;;;;;;;3.20;2.30;;;11.70;99.90;;;;;;4988577;28;20475;-70
2022/01/03 20:51:54;;;;;;;5.73;2.20;;;11.60;99.90;;;;;;5014068;28;20434;-71
2022/01/03 20:54:21;;;;;;;6.00;2.90;;;11.60;99.90;;;;;;4970517;28;20192;-71
2022/01/03 20:56:51;;;;;;;9.30;2.50;;;11.50;99.90;;;;;;4966185;28;20599;-70
2022/01/03 20:59:17;;;;;;;4.60;2.13;;;11.40;99.90;;;;;;4973672;28;20528;-70
2022/01/03 21:01:43;;;;;;;4.63;2.20;;;11.30;99.90;;;;;;5008547;28;20441;-70
2022/01/03 21:04:08;;;;;;;3.40;1.90;;;11.20;99.90;;;;;;4969821;28;20459;-71
2022/01/03 21:06:34;;;;;;;4.43;2.37;;;11.20;99.90;;;;;;4967798;28;20204;-71
2022/01/03 21:08:59;;;;;;;5.10;2.00;;;11.20;99.90;;;;;;4986043;28;20171;-71
2022/01/03 21:11:25;;;;;;;3.80;2.50;;;11.20;99.90;;;;;;4986642;28;20267;-70
2022/01/03 21:13:51;;;;;;;5.20;2.53;;;11.20;99.90;;;;;;5026675;28;20199;-70
2022/01/03 21:16:16;;;;;;;3.73;2.07;;;11.10;99.90;;;;;;5025891;28;20184;-70
2022/01/03 21:18:45;;;;;;;6.03;1.90;;;11.10;99.90;;;;;;4988033;28;20179;-70
2022/01/03 21:21:11;;;;;;;5.47;2.20;;;11.00;99.90;;;;;;4985966;28;20187;-69
2022/01/03 21:23:37;;;;;;;4.40;2.00;;;10.90;99.90;;;;;;4968794;28;20443;-70
2022/01/03 21:26:02;;;;;;;3.30;1.90;;;10.80;99.90;;;;;;4979103;28;20563;-70
2022/01/03 21:28:28;;;;;;;4.30;1.90;;;10.80;99.90;;;;;;4973250;28;20208;-70
2022/01/03 21:30:54;;;;;;;3.57;2.10;;;10.70;99.90;;;;;;5007424;28;20180;-70
2022/01/03 21:33:20;;;;;;;4.70;2.00;;;10.60;99.90;;;;;;5004586;28;20195;-70
2022/01/03 21:35:46;;;;;;;9.43;2.20;;;10.60;99.90;;;;;;5026269;28;20493;-70
2022/01/03 21:38:12;;;;;;;4.83;2.13;;;10.60;99.90;;;;;;4969070;28;20439;-70
2022/01/03 21:40:38;;;;;;;4.70;1.80;;;10.70;99.90;;;;;;4969922;28;20415;-70
2022/01/03 21:43:03;;;;;;;7.03;2.57;;;10.60;99.90;;;;;;4976472;28;20503;-70
2022/01/03 21:45:29;;;;;;;5.67;1.83;;;10.60;99.90;;;;;;4987247;28;20218;-69